Time,TemperatureF,DewpointF,PressureIn,WindDirection,WindDirectionDegrees,WindSpeedMPH,WindSpeedGustMPH,Humidity,HourlyPrecipIn,Conditions,Clouds,dailyrainin,SolarRadiationWatts/m^2,SoftwareType,DateUTC
2013-07-18 00:02:00,74.0,66.0,-100.00,East,84,2.0,14.0,76,0.00,,,0.00,0.000000,,2013-07-18 05:02:00,
2013-07-18 00:11:00,74.0,66.0,-100.00,East,84,2.0,14.0,76,0.00,,,0.00,0.000000,,2013-07-18 05:11:00,
2013-07-18 00:12:00,70.0,67.0,-100.00,West,275,0.0,4.0,89,0.00,,,0.00,0.000000,,2013-07-18 05:12:00,
2013-07-18 00:32:00,70.0,67.0,-100.00,West,275,0.0,4.0,89,0.00,,,0.00,0.000000,,2013-07-18 05:32:00,
2013-07-18 00:42:00,70.0,67.0,-100.00,West,275,0.0,4.0,89,0.00,,,0.00,0.000000,,2013-07-18 05:42:00,
2013-07-18 00:52:00,70.0,67.0,-100.00,West,275,0.0,4.0,89,0.00,,,0.00,0.000000,,2013-07-18 05:52:00,
2013-07-18 01:01:00,70.0,67.0,-100.00,West,275,0.0,4.0,89,0.00,,,0.00,0.000000,,2013-07-18 06:01:00,
2013-07-18 01:12:00,69.0,67.0,-100.00,WSW,238,1.0,3.0,94,0.00,,,0.00,0.000000,,2013-07-18 06:12:00,
2013-07-18 01:32:00,69.0,67.0,-100.00,WSW,238,1.0,3.0,94,0.00,,,0.00,0.000000,,2013-07-18 06:32:00,
2013-07-18 01:43:00,69.0,67.0,-100.00,WSW,238,1.0,3.0,94,0.00,,,0.00,0.000000,,2013-07-18 06:43:00,
2013-07-18 01:52:00,69.0,67.0,-100.00,WSW,238,1.0,3.0,94,0.00,,,0.00,0.000000,,2013-07-18 06:52:00,
2013-07-18 02:01:00,69.0,67.0,-100.00,WSW,238,1.0,3.0,94,0.00,,,0.00,0.000000,,2013-07-18 07:01:00,
2013-07-18 06:43:00,68.0,67.0,-100.00,ENE,58,0.0,2.0,97,-99.99,,,0.00,18.000000,,2013-07-18 11:43:00,
2013-07-18 06:52:00,68.0,67.0,-100.00,ENE,58,0.0,2.0,97,-99.99,,,0.00,18.000000,,2013-07-18 11:52:00,
2013-07-18 07:02:00,68.0,67.0,-100.00,ENE,58,0.0,2.0,97,-99.99,,,0.00,18.000000,,2013-07-18 12:02:00,
2013-07-18 07:11:00,68.0,67.0,-100.00,ENE,58,0.0,2.0,97,-99.99,,,0.00,18.000000,,2013-07-18 12:11:00,
2013-07-18 07:42:00,71.0,69.0,-100.00,West,271,0.0,2.0,92,0.00,,,0.00,110.000000,,2013-07-18 12:42:00,
2013-07-18 07:52:00,71.0,69.0,-100.00,West,271,0.0,2.0,92,0.00,,,0.00,110.000000,,2013-07-18 12:52:00,
2013-07-18 08:01:00,71.0,69.0,-100.00,West,271,0.0,2.0,92,0.00,,,0.00,110.000000,,2013-07-18 13:01:00,
2013-07-18 08:11:00,71.0,69.0,-100.00,West,271,0.0,2.0,92,0.00,,,0.00,110.000000,,2013-07-18 13:11:00,
2013-07-18 08:12:00,70.0,69.0,-100.00,North,5,4.0,9.0,97,0.06,,,0.06,17.000000,,2013-07-18 13:12:00,
2013-07-18 08:43:00,70.0,69.0,-100.00,North,5,4.0,9.0,97,0.06,,,0.06,17.000000,,2013-07-18 13:43:00,
2013-07-18 08:53:00,70.0,69.0,-100.00,North,5,4.0,9.0,97,0.06,,,0.06,17.000000,,2013-07-18 13:53:00,
2013-07-18 09:02:00,70.0,69.0,-100.00,North,5,4.0,9.0,97,0.06,,,0.06,17.000000,,2013-07-18 14:02:00,
2013-07-18 09:43:00,72.0,70.0,-100.00,East,82,1.0,10.0,94,0.00,,,0.06,116.000000,,2013-07-18 14:43:00,
2013-07-18 09:53:00,72.0,70.0,-100.00,East,82,1.0,10.0,94,0.00,,,0.06,116.000000,,2013-07-18 14:53:00,
2013-07-18 10:01:00,72.0,70.0,-100.00,East,82,1.0,10.0,94,0.00,,,0.06,116.000000,,2013-07-18 15:01:00,
2013-07-18 10:11:00,72.0,70.0,-100.00,East,82,1.0,10.0,94,0.00,,,0.06,116.000000,,2013-07-18 15:11:00,
2013-07-18 10:43:00,77.0,72.0,-100.00,SE,144,3.0,6.0,84,0.00,,,0.06,498.000000,,2013-07-18 15:43:00,
2013-07-18 10:53:00,77.0,72.0,-100.00,SE,144,3.0,6.0,84,0.00,,,0.06,498.000000,,2013-07-18 15:53:00,
2013-07-18 11:01:00,77.0,72.0,-100.00,SE,144,3.0,6.0,84,0.00,,,0.06,498.000000,,2013-07-18 16:01:00,
2013-07-18 11:11:00,77.0,72.0,-100.00,SE,144,3.0,6.0,84,0.00,,,0.06,498.000000,,2013-07-18 16:11:00,
2013-07-18 11:32:00,82.0,73.0,-100.00,SSE,150,5.0,9.0,74,0.00,,,-99.99,778.000000,,2013-07-18 16:32:00,
2013-07-18 11:42:00,82.0,73.0,-100.00,SSE,150,5.0,9.0,74,0.00,,,-99.99,778.000000,,2013-07-18 16:42:00,
2013-07-18 11:52:00,82.0,73.0,-100.00,SSE,150,5.0,9.0,74,0.00,,,-99.99,778.000000,,2013-07-18 16:52:00,
2013-07-18 12:02:00,82.0,73.0,-100.00,SSE,150,5.0,9.0,74,0.00,,,-99.99,778.000000,,2013-07-18 17:02:00,
2013-07-18 12:11:00,82.0,73.0,-100.00,SSE,150,5.0,9.0,74,0.00,,,-99.99,778.000000,,2013-07-18 17:11:00,
2013-07-18 12:33:00,84.0,73.0,-100.00,SSE,148,6.0,11.0,70,0.00,,,0.06,943.000000,,2013-07-18 17:33:00,
2013-07-18 12:43:00,84.0,73.0,-100.00,SSE,148,6.0,11.0,70,0.00,,,0.06,943.000000,,2013-07-18 17:43:00,
2013-07-18 12:52:00,84.0,73.0,-100.00,SSE,148,6.0,11.0,70,0.00,,,0.06,943.000000,,2013-07-18 17:52:00,
2013-07-18 13:01:00,84.0,73.0,-100.00,SSE,148,6.0,11.0,70,0.00,,,0.06,943.000000,,2013-07-18 18:01:00,
2013-07-18 13:11:00,84.0,73.0,-100.00,SSE,148,6.0,11.0,70,0.00,,,0.06,943.000000,,2013-07-18 18:11:00,
2013-07-18 13:43:00,80.0,71.0,-100.00,SSE,167,9.0,16.0,74,0.00,,,0.06,709.000000,,2013-07-18 18:43:00,
2013-07-18 13:52:00,80.0,71.0,-100.00,SSE,167,9.0,16.0,74,0.00,,,0.06,709.000000,,2013-07-18 18:52:00,
2013-07-18 14:02:00,80.0,71.0,-100.00,SSE,167,9.0,16.0,74,0.00,,,0.06,709.000000,,2013-07-18 19:02:00,
2013-07-18 14:11:00,80.0,71.0,-100.00,SSE,167,9.0,16.0,74,0.00,,,0.06,709.000000,,2013-07-18 19:11:00,
2013-07-18 14:43:00,80.0,72.0,-100.00,East,100,6.0,11.0,77,0.00,,,0.06,377.000000,,2013-07-18 19:43:00,
2013-07-18 14:53:00,80.0,72.0,-100.00,East,100,6.0,11.0,77,0.00,,,0.06,377.000000,,2013-07-18 19:53:00,
2013-07-18 15:02:00,80.0,72.0,-100.00,East,100,6.0,11.0,77,0.00,,,0.06,377.000000,,2013-07-18 20:02:00,
2013-07-18 15:11:00,80.0,72.0,-100.00,East,100,6.0,11.0,77,0.00,,,0.06,377.000000,,2013-07-18 20:11:00,
2013-07-18 15:32:00,85.0,74.0,-100.00,South,184,7.0,14.0,70,0.00,,,0.06,845.000000,,2013-07-18 20:32:00,
2013-07-18 15:43:00,85.0,74.0,-100.00,South,184,7.0,14.0,70,0.00,,,0.06,845.000000,,2013-07-18 20:43:00,
2013-07-18 15:52:00,85.0,74.0,-100.00,South,184,7.0,14.0,70,0.00,,,0.06,845.000000,,2013-07-18 20:52:00,
2013-07-18 16:01:00,85.0,74.0,-100.00,South,184,7.0,14.0,70,0.00,,,0.06,845.000000,,2013-07-18 21:01:00,
2013-07-18 16:11:00,85.0,74.0,-100.00,South,184,7.0,14.0,70,0.00,,,0.06,845.000000,,2013-07-18 21:11:00,
2013-07-18 16:32:00,89.0,76.0,-100.00,SSW,206,6.0,17.0,66,0.00,,,-99.99,649.000000,,2013-07-18 21:32:00,
2013-07-18 16:43:00,89.0,76.0,-100.00,SSW,206,6.0,17.0,66,0.00,,,-99.99,649.000000,,2013-07-18 21:43:00,
2013-07-18 16:52:00,89.0,76.0,-100.00,SSW,206,6.0,17.0,66,0.00,,,-99.99,649.000000,,2013-07-18 21:52:00,
2013-07-18 17:01:00,89.0,76.0,-100.00,SSW,206,6.0,17.0,66,0.00,,,-99.99,649.000000,,2013-07-18 22:01:00,
2013-07-18 17:11:00,89.0,76.0,-100.00,SSW,206,6.0,17.0,66,0.00,,,-99.99,649.000000,,2013-07-18 22:11:00,
2013-07-18 17:32:00,84.0,74.0,-100.00,WSW,252,7.0,24.0,71,0.02,,,0.08,507.000000,,2013-07-18 22:32:00,
2013-07-18 17:43:00,84.0,74.0,-100.00,WSW,252,7.0,24.0,71,0.02,,,0.08,507.000000,,2013-07-18 22:43:00,
2013-07-18 17:53:00,84.0,74.0,-100.00,WSW,252,7.0,24.0,71,0.02,,,0.08,507.000000,,2013-07-18 22:53:00,
2013-07-18 18:02:00,84.0,74.0,-100.00,WSW,252,7.0,24.0,71,0.02,,,0.08,507.000000,,2013-07-18 23:02:00,
2013-07-18 18:11:00,84.0,74.0,-100.00,WSW,252,7.0,24.0,71,0.02,,,0.08,507.000000,,2013-07-18 23:11:00,
2013-07-18 18:32:00,87.0,69.0,-100.00,WSW,242,10.0,21.0,55,0.00,,,0.08,439.000000,,2013-07-18 23:32:00,
2013-07-18 18:42:00,87.0,69.0,-100.00,WSW,242,10.0,21.0,55,0.00,,,0.08,439.000000,,2013-07-18 23:42:00,
2013-07-18 18:52:00,87.0,69.0,-100.00,WSW,242,10.0,21.0,55,0.00,,,0.08,439.000000,,2013-07-18 23:52:00,
2013-07-18 19:01:00,87.0,69.0,-100.00,WSW,242,10.0,21.0,55,0.00,,,0.08,439.000000,,2013-07-19 00:01:00,
2013-07-18 19:11:00,87.0,69.0,-100.00,WSW,242,10.0,21.0,55,0.00,,,0.08,439.000000,,2013-07-19 00:11:00,
2013-07-18 19:43:00,87.0,70.0,-100.00,WSW,237,7.0,15.0,58,0.00,,,0.08,292.000000,,2013-07-19 00:43:00,
2013-07-18 19:52:00,87.0,70.0,-100.00,WSW,237,7.0,15.0,58,0.00,,,0.08,292.000000,,2013-07-19 00:52:00,
2013-07-18 20:01:00,87.0,70.0,-100.00,WSW,237,7.0,15.0,58,0.00,,,0.08,292.000000,,2013-07-19 01:01:00,
2013-07-18 20:11:00,87.0,70.0,-100.00,WSW,237,7.0,15.0,58,0.00,,,0.08,292.000000,,2013-07-19 01:11:00,
2013-07-18 20:42:00,84.0,69.0,-100.00,SW,236,6.0,15.0,61,0.00,,,0.08,76.000000,,2013-07-19 01:42:00,
2013-07-18 20:52:00,84.0,69.0,-100.00,SW,236,6.0,15.0,61,0.00,,,0.08,76.000000,,2013-07-19 01:52:00,
2013-07-18 21:02:00,84.0,69.0,-100.00,SW,236,6.0,15.0,61,0.00,,,0.08,76.000000,,2013-07-19 02:02:00,
2013-07-18 21:11:00,84.0,69.0,-100.00,SW,236,6.0,15.0,61,0.00,,,0.08,76.000000,,2013-07-19 02:11:00,
2013-07-18 21:43:00,82.0,69.0,-100.00,SW,234,6.0,13.0,64,0.00,,,0.08,4.000000,,2013-07-19 02:43:00,
2013-07-18 21:52:00,82.0,69.0,-100.00,SW,234,6.0,13.0,64,0.00,,,0.08,4.000000,,2013-07-19 02:52:00,
2013-07-18 22:01:00,82.0,69.0,-100.00,SW,234,6.0,13.0,64,0.00,,,0.08,4.000000,,2013-07-19 03:01:00,
2013-07-18 22:11:00,82.0,69.0,-100.00,SW,234,6.0,13.0,64,0.00,,,0.08,4.000000,,2013-07-19 03:11:00,
2013-07-18 22:12:00,81.0,69.0,-100.00,WSW,237,7.0,13.0,66,0.00,,,0.08,0.000000,,2013-07-19 03:12:00,
2013-07-18 22:32:00,81.0,69.0,-100.00,WSW,237,7.0,13.0,66,0.00,,,0.08,0.000000,,2013-07-19 03:32:00,
2013-07-18 22:43:00,81.0,69.0,-100.00,WSW,237,7.0,13.0,66,0.00,,,0.08,0.000000,,2013-07-19 03:43:00,
2013-07-18 22:52:00,81.0,69.0,-100.00,WSW,237,7.0,13.0,66,0.00,,,0.08,0.000000,,2013-07-19 03:52:00,
2013-07-18 23:02:00,81.0,69.0,-100.00,WSW,237,7.0,13.0,66,0.00,,,0.08,0.000000,,2013-07-19 04:02:00,
2013-07-18 23:33:00,81.0,69.0,-100.00,WSW,237,7.0,13.0,67,0.00,,,0.08,0.000000,,2013-07-19 04:33:00,
2013-07-18 23:44:00,81.0,69.0,-100.00,WSW,237,7.0,13.0,67,0.00,,,0.08,0.000000,,2013-07-19 04:44:00,
2013-07-18 23:52:00,81.0,69.0,-100.00,WSW,237,7.0,13.0,67,0.00,,,0.08,0.000000,,2013-07-19 04:52:00,